createdAt,value
2023-01-22T00:00:04.404Z,80.00
2023-01-22T00:01:04.694Z,79.00
2023-01-22T00:02:04.197Z,79.00
2023-01-22T00:03:04.428Z,79.00
2023-01-22T00:04:04.286Z,79.00
2023-01-22T00:05:03.879Z,79.00
2023-01-22T00:06:03.799Z,79.00
2023-01-22T00:07:04.556Z,79.00
2023-01-22T00:08:04.692Z,80.00
2023-01-22T00:09:04.119Z,80.00
2023-01-22T00:10:04.086Z,80.00
2023-01-22T00:11:04.560Z,79.00
2023-01-22T00:12:03.923Z,79.00
2023-01-22T00:13:03.824Z,79.00
2023-01-22T00:14:03.967Z,79.00
2023-01-22T00:15:04.115Z,79.00
2023-01-22T00:16:04.345Z,80.00
2023-01-22T00:17:04.277Z,80.00
2023-01-22T00:18:04.106Z,80.00
2023-01-22T00:19:04.268Z,80.00
2023-01-22T00:20:04.193Z,80.00
2023-01-22T00:21:04.493Z,80.00
2023-01-22T00:22:03.506Z,80.00
2023-01-22T00:23:04.065Z,81.00
2023-01-22T00:24:03.853Z,81.00
2023-01-22T00:25:03.797Z,81.00
2023-01-22T00:26:03.615Z,81.00
2023-01-22T00:27:03.970Z,81.00
2023-01-22T00:28:03.780Z,81.00
2023-01-22T00:29:03.939Z,81.00
2023-01-22T00:30:03.909Z,81.00
2023-01-22T00:31:04.246Z,81.00
2023-01-22T00:32:04.827Z,81.00
2023-01-22T00:33:04.262Z,81.00
2023-01-22T00:34:04.320Z,81.00
2023-01-22T00:35:04.415Z,81.00
2023-01-22T00:36:04.513Z,82.00
2023-01-22T00:37:03.399Z,82.00
2023-01-22T00:38:03.810Z,82.00
2023-01-22T00:39:04.009Z,82.00
2023-01-22T00:40:03.713Z,82.00
2023-01-22T00:41:03.780Z,82.00
2023-01-22T00:42:03.912Z,82.00
2023-01-22T00:43:03.991Z,82.00
2023-01-22T00:44:03.933Z,82.00
2023-01-22T00:45:03.897Z,81.00
2023-01-22T00:46:04.119Z,81.00
2023-01-22T00:47:04.373Z,81.00
2023-01-22T00:48:04.235Z,81.00
2023-01-22T00:49:04.524Z,81.00
2023-01-22T00:50:04.357Z,81.00
2023-01-22T00:51:04.337Z,81.00
2023-01-22T00:52:04.603Z,81.00
2023-01-22T00:53:04.682Z,81.00
2023-01-22T00:54:04.528Z,81.00
2023-01-22T00:55:04.545Z,81.00
2023-01-22T00:56:04.281Z,81.00
2023-01-22T00:57:04.011Z,81.00
2023-01-22T00:58:03.825Z,81.00
2023-01-22T00:59:03.937Z,81.00
2023-01-22T01:00:03.907Z,81.00
2023-01-22T01:01:03.599Z,81.00
2023-01-22T01:02:04.260Z,81.00
2023-01-22T01:03:04.235Z,81.00
2023-01-22T01:04:04.263Z,81.00
2023-01-22T01:05:04.305Z,81.00
2023-01-22T01:06:04.246Z,81.00
2023-01-22T01:07:04.228Z,81.00
2023-01-22T01:08:04.214Z,81.00
2023-01-22T01:09:04.226Z,81.00
2023-01-22T01:10:04.250Z,81.00
2023-01-22T01:11:04.258Z,81.00
2023-01-22T01:12:04.096Z,81.00
2023-01-22T01:13:04.525Z,81.00
2023-01-22T01:14:04.329Z,81.00
2023-01-22T01:15:04.006Z,81.00
2023-01-22T01:16:04.047Z,81.00
2023-01-22T01:17:03.329Z,81.00
2023-01-22T01:18:03.370Z,81.00
2023-01-22T01:19:03.323Z,81.00
2023-01-22T01:20:03.617Z,81.00
2023-01-22T01:21:03.494Z,81.00
2023-01-22T01:22:03.415Z,81.00
2023-01-22T01:23:03.767Z,81.00
2023-01-22T01:24:03.997Z,81.00
2023-01-22T01:25:03.395Z,81.00
2023-01-22T01:26:03.370Z,81.00
2023-01-22T01:27:04.098Z,81.00
2023-01-22T01:28:04.204Z,82.00
2023-01-22T01:29:03.993Z,81.00
2023-01-22T01:30:03.917Z,81.00
2023-01-22T01:31:04.186Z,81.00
2023-01-22T01:32:03.361Z,81.00
2023-01-22T01:33:03.226Z,81.00
2023-01-22T01:34:03.220Z,81.00
2023-01-22T01:35:03.157Z,81.00
2023-01-22T01:36:03.042Z,81.00
2023-01-22T01:37:03.693Z,81.00
2023-01-22T01:38:04.017Z,82.00
2023-01-22T01:39:03.577Z,81.00
2023-01-22T01:40:03.550Z,81.00
2023-01-22T01:41:03.498Z,81.00
2023-01-22T01:42:04.083Z,81.00
2023-01-22T01:43:04.142Z,81.00
2023-01-22T01:44:04.167Z,81.00
2023-01-22T01:45:04.283Z,81.00
2023-01-22T01:46:04.202Z,81.00
2023-01-22T01:47:03.331Z,81.00
2023-01-22T01:48:03.666Z,81.00
2023-01-22T01:49:03.026Z,81.00
2023-01-22T01:50:02.882Z,81.00
2023-01-22T01:51:03.239Z,81.00
2023-01-22T01:52:03.982Z,81.00
2023-01-22T01:53:03.928Z,81.00
2023-01-22T01:54:04.027Z,81.00
2023-01-22T01:55:03.771Z,81.00
2023-01-22T01:56:03.551Z,80.00
2023-01-22T01:57:03.561Z,81.00
2023-01-22T01:58:03.311Z,80.00
2023-01-22T01:59:03.319Z,80.00
2023-01-22T02:00:03.517Z,80.00
2023-01-22T02:01:03.854Z,80.00
2023-01-22T02:02:04.392Z,80.00
2023-01-22T02:03:04.260Z,80.00
2023-01-22T02:04:04.101Z,80.00
2023-01-22T02:05:04.326Z,80.00
2023-01-22T02:06:04.544Z,80.00
2023-01-22T02:07:04.623Z,80.00
2023-01-22T02:08:04.526Z,80.00
2023-01-22T02:09:04.589Z,81.00
2023-01-22T02:10:04.561Z,81.00
2023-01-22T02:11:04.469Z,80.00
2023-01-22T02:12:03.915Z,80.00
2023-01-22T02:13:04.239Z,80.00
2023-01-22T02:14:04.137Z,80.00
2023-01-22T02:15:04.131Z,80.00
2023-01-22T02:16:04.194Z,80.00
2023-01-22T02:17:04.327Z,80.00
2023-01-22T02:18:03.861Z,80.00
2023-01-22T02:19:03.853Z,80.00
2023-01-22T02:20:03.836Z,80.00
2023-01-22T02:21:04.079Z,80.00
2023-01-22T02:22:04.818Z,80.00
2023-01-22T02:23:04.652Z,80.00
2023-01-22T02:24:04.925Z,79.00
2023-01-22T02:25:04.835Z,79.00
2023-01-22T02:26:04.773Z,79.00
2023-01-22T02:27:04.538Z,79.00
2023-01-22T02:28:04.331Z,79.00
2023-01-22T02:29:04.540Z,79.00
2023-01-22T02:30:04.529Z,80.00
2023-01-22T02:31:04.596Z,80.00
2023-01-22T02:32:04.275Z,80.00
2023-01-22T02:33:04.376Z,79.00
2023-01-22T02:34:04.322Z,79.00
2023-01-22T02:35:04.294Z,79.00
2023-01-22T02:36:04.355Z,79.00
2023-01-22T02:37:04.343Z,79.00
2023-01-22T02:38:04.629Z,79.00
2023-01-22T02:39:03.989Z,79.00
2023-01-22T02:40:04.388Z,79.00
2023-01-22T02:41:04.280Z,79.00
2023-01-22T02:42:04.531Z,79.00
2023-01-22T02:43:04.637Z,79.00
2023-01-22T02:44:04.398Z,79.00
2023-01-22T02:45:04.446Z,79.00
2023-01-22T02:46:04.104Z,79.00
2023-01-22T02:47:04.825Z,79.00
2023-01-22T02:48:04.786Z,80.00
2023-01-22T02:49:04.742Z,80.00
2023-01-22T02:50:04.430Z,80.00
2023-01-22T02:51:04.453Z,80.00
2023-01-22T02:52:04.186Z,80.00
2023-01-22T02:53:04.045Z,80.00
2023-01-22T02:54:04.082Z,79.00
2023-01-22T02:55:04.072Z,79.00
2023-01-22T02:56:04.072Z,79.00
2023-01-22T02:57:04.811Z,79.00
2023-01-22T02:58:04.685Z,79.00
2023-01-22T02:59:04.707Z,79.00
2023-01-22T03:00:04.820Z,79.00
2023-01-22T03:01:04.374Z,79.00
2023-01-22T03:02:04.134Z,79.00
2023-01-22T03:03:03.497Z,80.00
2023-01-22T03:04:03.682Z,79.00
2023-01-22T03:05:03.898Z,79.00
2023-01-22T03:06:03.749Z,79.00
2023-01-22T03:07:04.491Z,79.00
2023-01-22T03:08:04.172Z,78.00
2023-01-22T03:09:04.222Z,78.00
2023-01-22T03:10:04.265Z,79.00
2023-01-22T03:11:03.849Z,78.00
2023-01-22T03:12:03.001Z,78.00
2023-01-22T03:13:03.236Z,78.00
2023-01-22T03:14:03.208Z,78.00
2023-01-22T03:15:02.966Z,78.00
2023-01-22T03:16:03.309Z,78.00
2023-01-22T03:17:03.355Z,78.00
2023-01-22T03:18:03.562Z,79.00
2023-01-22T03:19:03.516Z,78.00
2023-01-22T03:20:03.432Z,78.00
2023-01-22T03:21:03.551Z,78.00
2023-01-22T03:22:04.096Z,78.00
2023-01-22T03:23:04.134Z,78.00
2023-01-22T03:24:04.104Z,78.00
2023-01-22T03:25:03.458Z,78.00
2023-01-22T03:26:03.649Z,78.00
2023-01-22T03:27:03.635Z,78.00
2023-01-22T03:28:03.908Z,78.00
2023-01-22T03:29:03.901Z,78.00
2023-01-22T03:30:03.937Z,78.00
2023-01-22T03:31:03.947Z,78.00
2023-01-22T03:32:03.160Z,78.00
2023-01-22T03:33:03.187Z,78.00
2023-01-22T03:34:03.148Z,78.00
2023-01-22T03:35:03.036Z,78.00
2023-01-22T03:36:03.325Z,78.00
2023-01-22T03:37:03.603Z,79.00
2023-01-22T03:38:03.522Z,78.00
2023-01-22T03:39:04.038Z,78.00
2023-01-22T03:40:04.043Z,78.00
2023-01-22T03:41:03.449Z,78.00
2023-01-22T03:42:03.767Z,78.00
2023-01-22T03:43:03.829Z,78.00
2023-01-22T03:44:03.662Z,78.00
2023-01-22T03:45:03.846Z,78.00
2023-01-22T03:46:04.092Z,78.00
2023-01-22T03:47:03.745Z,78.00
2023-01-22T03:48:03.761Z,78.00
2023-01-22T03:49:03.853Z,78.00
2023-01-22T03:50:03.887Z,78.00
2023-01-22T03:51:03.978Z,77.00
2023-01-22T03:52:03.439Z,77.00
2023-01-22T03:53:03.514Z,77.00
2023-01-22T03:54:03.414Z,77.00
2023-01-22T03:55:02.902Z,77.00
2023-01-22T03:56:03.452Z,77.00
2023-01-22T03:57:03.776Z,78.00
2023-01-22T03:58:03.863Z,78.00
2023-01-22T03:59:03.487Z,78.00
2023-01-22T04:00:03.764Z,78.00
2023-01-22T04:01:03.972Z,78.00
2023-01-22T04:02:03.127Z,78.00
2023-01-22T04:03:03.181Z,77.00
2023-01-22T04:04:03.028Z,77.00
2023-01-22T04:05:02.986Z,77.00
2023-01-22T04:06:03.064Z,78.00
2023-01-22T04:07:02.857Z,77.00
2023-01-22T04:08:03.149Z,77.00
2023-01-22T04:09:03.551Z,77.00
2023-01-22T04:10:02.867Z,77.00
2023-01-22T04:11:03.135Z,77.00
2023-01-22T04:12:03.030Z,77.00
2023-01-22T04:13:03.440Z,77.00
2023-01-22T04:14:03.414Z,77.00
2023-01-22T04:15:03.176Z,77.00
2023-01-22T04:16:03.113Z,77.00
2023-01-22T04:17:03.070Z,77.00
2023-01-22T04:18:02.952Z,77.00
2023-01-22T04:19:02.894Z,76.00
2023-01-22T04:20:03.067Z,76.00
2023-01-22T04:21:03.022Z,76.00
2023-01-22T04:22:04.020Z,76.00
2023-01-22T04:23:03.998Z,77.00
2023-01-22T04:24:03.647Z,77.00
2023-01-22T04:25:03.694Z,77.00
2023-01-22T04:26:03.617Z,77.00
2023-01-22T04:27:03.600Z,77.00
2023-01-22T04:28:03.532Z,77.00
2023-01-22T04:29:03.545Z,77.00
2023-01-22T04:30:03.559Z,77.00
2023-01-22T04:31:03.623Z,77.00
2023-01-22T04:32:03.253Z,77.00
2023-01-22T04:33:03.198Z,77.00
2023-01-22T04:34:02.965Z,77.00
2023-01-22T04:35:03.130Z,77.00
2023-01-22T04:36:03.064Z,77.00
2023-01-22T04:37:02.733Z,76.00
2023-01-22T04:38:02.736Z,76.00
2023-01-22T04:39:02.752Z,76.00
2023-01-22T04:40:02.678Z,76.00
2023-01-22T04:41:02.574Z,76.00
2023-01-22T04:42:03.217Z,76.00
2023-01-22T04:43:03.120Z,76.00
2023-01-22T04:44:03.111Z,76.00
2023-01-22T04:45:03.059Z,76.00
2023-01-22T04:46:03.093Z,76.00
2023-01-22T04:47:02.839Z,76.00
2023-01-22T04:48:02.720Z,76.00
2023-01-22T04:49:02.639Z,76.00
2023-01-22T04:50:02.652Z,77.00
2023-01-22T04:51:02.661Z,77.00
2023-01-22T04:52:03.339Z,77.00
2023-01-22T04:53:03.532Z,77.00
2023-01-22T04:54:03.554Z,77.00
2023-01-22T04:55:02.920Z,77.00
2023-01-22T04:56:03.188Z,77.00
2023-01-22T04:57:03.697Z,77.00
2023-01-22T04:58:03.718Z,77.00
2023-01-22T04:59:03.684Z,77.00
2023-01-22T05:00:03.633Z,77.00
2023-01-22T05:01:03.863Z,77.00
2023-01-22T05:02:04.511Z,77.00
2023-01-22T05:03:04.627Z,77.00
2023-01-22T05:04:04.643Z,77.00
2023-01-22T05:05:04.584Z,77.00
2023-01-22T05:06:04.629Z,77.00
2023-01-22T05:07:04.198Z,77.00
2023-01-22T05:08:04.213Z,77.00
2023-01-22T05:09:04.310Z,77.00
2023-01-22T05:10:04.187Z,77.00
2023-01-22T05:11:04.282Z,77.00
2023-01-22T05:12:04.616Z,77.00
2023-01-22T05:13:04.713Z,77.00
2023-01-22T05:14:04.508Z,77.00
2023-01-22T05:15:15.039Z,77.00
2023-01-22T05:16:04.680Z,77.00
2023-01-22T05:17:04.440Z,77.00
2023-01-22T05:18:04.377Z,77.00
2023-01-22T05:19:04.073Z,76.00
2023-01-22T05:20:04.270Z,76.00
2023-01-22T05:21:04.219Z,76.00
2023-01-22T05:22:04.782Z,77.00
2023-01-22T05:23:04.723Z,77.00
2023-01-22T05:24:05.252Z,77.00
2023-01-22T05:25:04.574Z,77.00
2023-01-22T05:26:04.567Z,77.00
2023-01-22T05:27:04.038Z,77.00
2023-01-22T05:28:04.001Z,77.00
2023-01-22T05:29:03.994Z,77.00
2023-01-22T05:30:03.961Z,77.00
2023-01-22T05:31:04.006Z,77.00
2023-01-22T05:32:04.627Z,77.00
2023-01-22T05:33:04.481Z,77.00
2023-01-22T05:34:04.550Z,77.00
2023-01-22T05:35:04.461Z,77.00
2023-01-22T05:36:04.492Z,76.00
2023-01-22T05:37:04.246Z,76.00
2023-01-22T05:38:04.285Z,76.00
2023-01-22T05:39:04.237Z,77.00
2023-01-22T05:40:03.783Z,77.00
2023-01-22T05:41:03.745Z,77.00
2023-01-22T05:42:04.383Z,76.00
2023-01-22T05:43:04.773Z,76.00
2023-01-22T05:44:04.125Z,76.00
2023-01-22T05:45:04.216Z,76.00
2023-01-22T05:46:04.210Z,76.00
2023-01-22T05:47:04.584Z,77.00
2023-01-22T05:48:04.543Z,77.00
2023-01-22T05:49:04.325Z,77.00
2023-01-22T05:50:04.538Z,77.00
2023-01-22T05:51:04.571Z,77.00
2023-01-22T05:52:04.390Z,77.00
2023-01-22T05:53:04.270Z,77.00
2023-01-22T05:54:03.754Z,78.00
2023-01-22T05:55:04.032Z,77.00
2023-01-22T05:56:03.988Z,77.00
2023-01-22T05:57:04.569Z,77.00
2023-01-22T05:58:06.314Z,77.00
2023-01-22T05:59:04.371Z,77.00
2023-01-22T06:00:04.372Z,77.00
2023-01-22T06:01:04.589Z,78.00
2023-01-22T06:02:04.837Z,78.00
2023-01-22T06:03:04.822Z,78.00
2023-01-22T06:04:04.667Z,77.00
2023-01-22T06:05:04.588Z,77.00
2023-01-22T06:06:04.528Z,77.00
2023-01-22T06:07:05.203Z,77.00
2023-01-22T06:08:05.083Z,77.00
2023-01-22T06:09:05.148Z,77.00
2023-01-22T06:10:05.055Z,77.00
2023-01-22T06:11:04.929Z,77.00
2023-01-22T06:12:04.513Z,77.00
2023-01-22T06:13:04.381Z,77.00
2023-01-22T06:14:04.354Z,76.00
2023-01-22T06:15:04.383Z,76.00
2023-01-22T06:16:04.170Z,76.00
2023-01-22T06:17:04.556Z,77.00
2023-01-22T06:18:04.483Z,77.00
2023-01-22T06:19:04.457Z,77.00
2023-01-22T06:20:04.488Z,77.00
2023-01-22T06:21:04.513Z,77.00
2023-01-22T06:22:03.547Z,77.00
2023-01-22T06:23:03.692Z,77.00
2023-01-22T06:24:03.650Z,77.00
2023-01-22T06:25:03.597Z,77.00
2023-01-22T06:26:03.632Z,77.00
2023-01-22T06:27:03.627Z,78.00
2023-01-22T06:28:03.889Z,77.00
2023-01-22T06:29:03.740Z,77.00
2023-01-22T06:30:03.705Z,78.00
2023-01-22T06:31:03.783Z,78.00
2023-01-22T06:32:03.778Z,77.00
2023-01-22T06:33:04.135Z,77.00
2023-01-22T06:34:04.568Z,77.00
2023-01-22T06:35:03.826Z,77.00
2023-01-22T06:36:03.761Z,78.00
2023-01-22T06:37:04.041Z,78.00
2023-01-22T06:38:04.665Z,78.00
2023-01-22T06:39:04.101Z,78.00
2023-01-22T06:40:04.139Z,78.00
2023-01-22T06:41:04.036Z,78.00
2023-01-22T06:42:04.290Z,78.00
2023-01-22T06:43:04.308Z,78.00
2023-01-22T06:44:04.282Z,78.00
2023-01-22T06:45:04.202Z,77.00
2023-01-22T06:46:04.434Z,77.00
2023-01-22T06:47:04.247Z,77.00
2023-01-22T06:48:04.319Z,77.00
2023-01-22T06:49:04.361Z,77.00
2023-01-22T06:50:04.275Z,77.00
2023-01-22T06:51:04.398Z,77.00
2023-01-22T06:52:03.484Z,77.00
2023-01-22T06:53:03.525Z,77.00
2023-01-22T06:54:03.503Z,77.00
2023-01-22T06:55:03.539Z,77.00
2023-01-22T06:56:03.600Z,77.00
2023-01-22T06:57:03.752Z,77.00
2023-01-22T06:58:03.709Z,77.00
2023-01-22T06:59:03.695Z,77.00
2023-01-22T07:00:04.003Z,77.00
2023-01-22T07:01:04.087Z,77.00
2023-01-22T07:02:04.607Z,78.00
2023-01-22T07:03:04.614Z,78.00
2023-01-22T07:04:04.268Z,77.00
2023-01-22T07:05:04.461Z,77.00
2023-01-22T07:06:04.409Z,77.00
2023-01-22T07:07:03.800Z,77.00
2023-01-22T07:08:03.899Z,78.00
2023-01-22T07:09:03.829Z,77.00
2023-01-22T07:10:03.790Z,77.00
2023-01-22T07:11:05.671Z,78.00
2023-01-22T07:12:03.802Z,78.00
2023-01-22T07:13:03.872Z,77.00
2023-01-22T07:14:03.876Z,77.00
2023-01-22T07:15:03.961Z,77.00
2023-01-22T07:16:04.061Z,77.00
2023-01-22T07:17:04.093Z,77.00
2023-01-22T07:18:04.092Z,77.00
2023-01-22T07:19:04.086Z,77.00
2023-01-22T07:20:04.073Z,77.00
2023-01-22T07:21:09.944Z,77.00
2023-01-22T07:22:04.324Z,77.00
2023-01-22T07:23:04.185Z,77.00
2023-01-22T07:24:04.372Z,77.00
2023-01-22T07:25:04.388Z,77.00
2023-01-22T07:26:04.297Z,77.00
2023-01-22T07:27:03.425Z,77.00
2023-01-22T07:28:03.513Z,77.00
2023-01-22T07:29:03.537Z,77.00
2023-01-22T07:30:03.709Z,77.00
2023-01-22T07:31:03.636Z,77.00
2023-01-22T07:32:03.787Z,77.00
2023-01-22T07:33:04.151Z,77.00
2023-01-22T07:34:04.144Z,77.00
2023-01-22T07:35:03.548Z,77.00
2023-01-22T07:36:03.914Z,77.00
2023-01-22T07:37:03.865Z,77.00
2023-01-22T07:38:04.038Z,77.00
2023-01-22T07:39:04.030Z,76.00
2023-01-22T07:40:04.067Z,76.00
2023-01-22T07:41:07.208Z,76.00
2023-01-22T07:42:04.041Z,76.00
2023-01-22T07:43:04.088Z,76.00
2023-01-22T07:44:04.198Z,76.00
2023-01-22T07:45:04.331Z,77.00
2023-01-22T07:46:04.398Z,77.00
2023-01-22T07:47:03.511Z,77.00
2023-01-22T07:48:03.521Z,77.00
2023-01-22T07:49:03.588Z,77.00
2023-01-22T07:50:03.716Z,77.00
2023-01-22T07:51:03.793Z,77.00
2023-01-22T07:52:03.931Z,77.00
2023-01-22T07:53:03.963Z,77.00
2023-01-22T07:54:04.192Z,77.00
2023-01-22T07:55:03.565Z,77.00
2023-01-22T07:56:04.173Z,77.00
2023-01-22T07:57:03.351Z,77.00
2023-01-22T07:58:03.471Z,77.00
2023-01-22T07:59:03.158Z,77.00
2023-01-22T08:00:03.078Z,77.00
2023-01-22T08:01:03.363Z,77.00
2023-01-22T08:02:03.939Z,77.00
2023-01-22T08:03:03.550Z,77.00
2023-01-22T08:04:03.623Z,77.00
2023-01-22T08:05:03.580Z,77.00
2023-01-22T08:06:03.608Z,77.00
2023-01-22T08:07:04.394Z,77.00
2023-01-22T08:08:04.457Z,77.00
2023-01-22T08:09:04.506Z,77.00
2023-01-22T08:10:04.725Z,77.00
2023-01-22T08:11:04.057Z,77.00
2023-01-22T08:12:03.884Z,77.00
2023-01-22T08:13:03.955Z,77.00
2023-01-22T08:14:03.426Z,77.00
2023-01-22T08:15:03.702Z,77.00
2023-01-22T08:16:03.919Z,77.00
2023-01-22T08:17:03.915Z,77.00
2023-01-22T08:18:03.986Z,77.00
2023-01-22T08:19:04.116Z,77.00
2023-01-22T08:20:03.583Z,77.00
2023-01-22T08:21:03.909Z,77.00
2023-01-22T08:22:04.292Z,77.00
2023-01-22T08:23:04.419Z,78.00
2023-01-22T08:24:03.900Z,78.00
2023-01-22T08:25:04.430Z,78.00
2023-01-22T08:26:04.455Z,78.00
2023-01-22T08:27:04.431Z,77.00
2023-01-22T08:28:04.482Z,78.00
2023-01-22T08:29:07.443Z,78.00
2023-01-22T08:30:04.029Z,78.00
2023-01-22T08:31:04.505Z,78.00
2023-01-22T08:32:03.906Z,78.00
2023-01-22T08:33:03.493Z,78.00
2023-01-22T08:34:03.734Z,78.00
2023-01-22T08:35:03.809Z,78.00
2023-01-22T08:36:03.897Z,78.00
2023-01-22T08:37:03.890Z,77.00
2023-01-22T08:38:03.926Z,77.00
2023-01-22T08:39:03.995Z,77.00
2023-01-22T08:40:03.932Z,78.00
2023-01-22T08:41:04.100Z,78.00
2023-01-22T08:42:04.300Z,78.00
2023-01-22T08:43:03.780Z,78.00
2023-01-22T08:44:03.963Z,78.00
2023-01-22T08:45:04.133Z,78.00
2023-01-22T08:46:04.254Z,78.00
2023-01-22T08:47:04.456Z,78.00
2023-01-22T08:48:04.692Z,77.00
2023-01-22T08:49:03.985Z,77.00
2023-01-22T08:50:04.284Z,77.00
2023-01-22T08:51:04.329Z,77.00
2023-01-22T08:52:03.974Z,77.00
2023-01-22T08:53:04.399Z,77.00
2023-01-22T08:54:04.485Z,77.00
2023-01-22T08:55:04.476Z,78.00
2023-01-22T08:56:04.594Z,78.00
2023-01-22T08:57:03.746Z,78.00
2023-01-22T08:58:03.307Z,78.00
2023-01-22T08:59:03.405Z,77.00
2023-01-22T09:00:03.662Z,77.00
2023-01-22T09:01:03.852Z,77.00
2023-01-22T09:02:04.052Z,77.00
2023-01-22T09:03:03.465Z,78.00
2023-01-22T09:04:03.872Z,78.00
2023-01-22T09:05:03.961Z,78.00
2023-01-22T09:06:04.463Z,78.00
2023-01-22T09:07:03.591Z,77.00
2023-01-22T09:08:03.042Z,77.00
2023-01-22T09:09:03.445Z,77.00
2023-01-22T09:10:03.637Z,77.00
2023-01-22T09:11:02.982Z,77.00
2023-01-22T09:12:04.423Z,77.00
2023-01-22T09:13:03.617Z,77.00
2023-01-22T09:14:03.951Z,77.00
2023-01-22T09:15:03.948Z,77.00
2023-01-22T09:16:03.409Z,77.00
2023-01-22T09:17:04.362Z,77.00
2023-01-22T09:18:04.665Z,77.00
2023-01-22T09:19:04.013Z,77.00
2023-01-22T09:20:04.119Z,77.00
2023-01-22T09:21:04.291Z,77.00
2023-01-22T09:22:02.814Z,77.00
2023-01-22T09:23:03.119Z,77.00
2023-01-22T09:24:03.245Z,77.00
2023-01-22T09:25:03.296Z,77.00
2023-01-22T09:26:03.342Z,76.00
2023-01-22T09:27:04.036Z,76.00
2023-01-22T09:28:03.398Z,76.00
2023-01-22T09:29:03.658Z,75.00
2023-01-22T09:30:09.701Z,75.00
2023-01-22T09:31:04.176Z,76.00
2023-01-22T09:32:02.792Z,76.00
2023-01-22T09:33:02.864Z,76.00
2023-01-22T09:34:02.965Z,76.00
2023-01-22T09:35:02.930Z,76.00
2023-01-22T09:36:03.007Z,76.00
2023-01-22T09:37:03.021Z,77.00
2023-01-22T09:38:03.340Z,77.00
2023-01-22T09:39:03.408Z,77.00
2023-01-22T09:40:03.389Z,77.00
2023-01-22T09:41:03.427Z,77.00
2023-01-22T09:42:03.556Z,77.00
2023-01-22T09:43:03.832Z,77.00
2023-01-22T09:44:03.828Z,76.00
2023-01-22T09:45:03.868Z,77.00
2023-01-22T09:46:03.939Z,77.00
2023-01-22T09:47:03.056Z,76.00
2023-01-22T09:48:03.147Z,76.00
2023-01-22T09:49:03.225Z,76.00
2023-01-22T09:50:03.269Z,76.00
2023-01-22T09:51:03.416Z,76.00
2023-01-22T09:52:05.171Z,76.00
2023-01-22T09:53:03.536Z,76.00
2023-01-22T09:54:03.657Z,77.00
2023-01-22T09:55:03.692Z,76.00
2023-01-22T09:56:03.688Z,76.00
2023-01-22T09:57:03.618Z,76.00
2023-01-22T09:58:03.870Z,76.00
2023-01-22T09:59:03.975Z,76.00
2023-01-22T10:00:03.905Z,76.00
2023-01-22T10:01:04.127Z,76.00
2023-01-22T10:02:04.189Z,76.00
2023-01-22T10:03:04.496Z,76.00
2023-01-22T10:04:04.481Z,76.00
2023-01-22T10:05:04.540Z,76.00
2023-01-22T10:06:04.490Z,76.00
2023-01-22T10:07:03.653Z,76.00
2023-01-22T10:08:03.752Z,76.00
2023-01-22T10:09:03.921Z,76.00
2023-01-22T10:10:04.087Z,76.00
2023-01-22T10:11:03.535Z,77.00
2023-01-22T10:12:03.767Z,77.00
2023-01-22T10:13:03.895Z,77.00
2023-01-22T10:14:03.581Z,77.00
2023-01-22T10:15:03.937Z,77.00
2023-01-22T10:16:04.067Z,77.00
2023-01-22T10:17:04.092Z,77.00
2023-01-22T10:18:04.211Z,77.00
2023-01-22T10:19:04.322Z,77.00
2023-01-22T10:20:04.075Z,77.00
2023-01-22T10:21:04.007Z,77.00
2023-01-22T10:22:03.314Z,77.00
2023-01-22T10:23:03.295Z,77.00
2023-01-22T10:24:03.440Z,77.00
2023-01-22T10:25:03.596Z,77.00
2023-01-22T10:26:03.170Z,77.00
2023-01-22T10:27:03.353Z,77.00
2023-01-22T10:28:03.244Z,78.00
2023-01-22T10:29:03.350Z,77.00
2023-01-22T10:30:03.469Z,78.00
2023-01-22T10:31:03.690Z,78.00
2023-01-22T10:32:03.972Z,77.00
2023-01-22T10:33:03.746Z,77.00
2023-01-22T10:34:04.196Z,77.00
2023-01-22T10:35:04.364Z,77.00
2023-01-22T10:36:03.716Z,77.00
2023-01-22T10:37:04.066Z,77.00
2023-01-22T10:38:04.185Z,77.00
2023-01-22T10:39:04.357Z,76.00
2023-01-22T10:40:04.764Z,76.00
2023-01-22T10:41:04.207Z,76.00
2023-01-22T10:42:03.477Z,77.00
2023-01-22T10:43:03.772Z,77.00
2023-01-22T10:44:03.212Z,77.00
2023-01-22T10:45:03.420Z,77.00
2023-01-22T10:46:03.663Z,77.00
2023-01-22T10:47:03.796Z,76.00
2023-01-22T10:48:03.953Z,77.00
2023-01-22T10:49:04.051Z,77.00
2023-01-22T10:50:04.781Z,76.00
2023-01-22T10:51:04.220Z,76.00
2023-01-22T10:52:03.334Z,76.00
2023-01-22T10:53:03.466Z,76.00
2023-01-22T10:54:03.543Z,77.00
2023-01-22T10:55:02.978Z,76.00
2023-01-22T10:56:03.646Z,76.00
2023-01-22T10:57:03.767Z,76.00
2023-01-22T10:58:04.054Z,76.00
2023-01-22T10:59:04.081Z,76.00
2023-01-22T11:00:03.446Z,76.00
2023-01-22T11:01:03.899Z,77.00
2023-01-22T11:02:04.531Z,76.00
2023-01-22T11:03:04.779Z,77.00
2023-01-22T11:04:04.871Z,77.00
2023-01-22T11:05:04.972Z,77.00
2023-01-22T11:06:04.438Z,77.00
2023-01-22T11:07:04.869Z,77.00
2023-01-22T11:08:05.004Z,77.00
2023-01-22T11:09:04.938Z,77.00
2023-01-22T11:10:04.876Z,77.00
2023-01-22T11:11:04.886Z,77.00
2023-01-22T11:12:03.978Z,77.00
2023-01-22T11:13:04.010Z,77.00
2023-01-22T11:14:04.081Z,77.00
2023-01-22T11:15:04.176Z,76.00
2023-01-22T11:16:04.228Z,76.00
2023-01-22T11:17:04.446Z,76.00
2023-01-22T11:18:04.536Z,75.00
2023-01-22T11:19:04.636Z,76.00
2023-01-22T11:20:04.071Z,76.00
2023-01-22T11:21:04.407Z,76.00
2023-01-22T11:22:04.484Z,76.00
2023-01-22T11:23:04.766Z,76.00
2023-01-22T11:24:04.231Z,76.00
2023-01-22T11:25:05.827Z,76.00
2023-01-22T11:26:04.913Z,76.00
2023-01-22T11:27:03.977Z,76.00
2023-01-22T11:28:04.217Z,76.00
2023-01-22T11:29:03.617Z,76.00
2023-01-22T11:30:03.947Z,76.00
2023-01-22T11:31:04.264Z,76.00
2023-01-22T11:32:04.394Z,75.00
2023-01-22T11:33:04.792Z,76.00
2023-01-22T11:34:04.215Z,76.00
2023-01-22T11:35:04.204Z,75.00
2023-01-22T11:36:04.593Z,75.00
2023-01-22T11:37:04.772Z,75.00
2023-01-22T11:38:04.968Z,75.00
2023-01-22T11:39:04.663Z,75.00
2023-01-22T11:40:04.705Z,75.00
2023-01-22T11:41:04.991Z,75.00
2023-01-22T11:42:04.105Z,75.00
2023-01-22T11:43:04.187Z,75.00
2023-01-22T11:44:03.648Z,75.00
2023-01-22T11:45:04.024Z,75.00
2023-01-22T11:46:04.171Z,75.00
2023-01-22T11:47:04.307Z,75.00
2023-01-22T11:48:04.602Z,75.00
2023-01-22T11:49:04.024Z,75.00
2023-01-22T11:50:02.632Z,75.00
2023-01-22T11:51:04.265Z,75.00
2023-01-22T11:52:04.422Z,75.00
2023-01-22T11:53:04.542Z,75.00
2023-01-22T11:54:03.155Z,75.00
2023-01-22T11:55:04.295Z,75.00
2023-01-22T11:56:02.859Z,75.00
2023-01-22T11:57:04.555Z,74.00
2023-01-22T11:58:04.735Z,74.00
2023-01-22T11:59:04.726Z,74.00
2023-01-22T12:00:04.209Z,74.00
2023-01-22T12:01:04.390Z,74.00
2023-01-22T12:02:04.583Z,75.00
2023-01-22T12:03:04.723Z,74.00
2023-01-22T12:04:04.667Z,74.00
2023-01-22T12:05:04.736Z,74.00
2023-01-22T12:06:04.188Z,75.00
2023-01-22T12:07:04.572Z,75.00
2023-01-22T12:08:04.531Z,75.00
2023-01-22T12:09:04.668Z,74.00
2023-01-22T12:10:04.120Z,74.00
2023-01-22T12:11:04.448Z,74.00
2023-01-22T12:12:04.293Z,74.00
2023-01-22T12:13:04.451Z,75.00
2023-01-22T12:14:03.819Z,75.00
2023-01-22T12:15:04.153Z,75.00
2023-01-22T12:16:05.590Z,75.00
2023-01-22T12:17:04.335Z,74.00
2023-01-22T12:18:03.797Z,74.00
2023-01-22T12:19:02.436Z,74.00
2023-01-22T12:20:04.320Z,74.00
2023-01-22T12:21:02.765Z,75.00
2023-01-22T12:22:03.995Z,75.00
2023-01-22T12:23:02.432Z,75.00
2023-01-22T12:24:02.552Z,75.00
2023-01-22T12:25:03.628Z,75.00
2023-01-22T12:26:03.794Z,74.00
2023-01-22T12:27:04.692Z,74.00
2023-01-22T12:28:04.708Z,75.00
2023-01-22T12:29:04.183Z,75.00
2023-01-22T12:30:04.199Z,75.00
2023-01-22T12:31:04.463Z,75.00
2023-01-22T12:32:03.152Z,75.00
2023-01-22T12:33:05.261Z,75.00
2023-01-22T12:34:02.881Z,75.00
2023-01-22T12:35:02.756Z,75.00
2023-01-22T12:36:02.758Z,74.00
2023-01-22T12:37:04.753Z,74.00
2023-01-22T12:38:04.477Z,74.00
2023-01-22T12:39:04.883Z,74.00
2023-01-22T12:40:02.722Z,74.00
2023-01-22T12:41:03.025Z,74.00
2023-01-22T12:42:02.410Z,75.00
2023-01-22T12:43:02.102Z,75.00
2023-01-22T12:44:01.846Z,75.00
2023-01-22T12:45:02.884Z,75.00
2023-01-22T12:46:02.391Z,74.00
2023-01-22T12:47:02.412Z,75.00
2023-01-22T12:48:02.401Z,75.00
2023-01-22T12:49:01.951Z,75.00
2023-01-22T12:50:04.001Z,75.00
2023-01-22T12:51:02.306Z,75.00
2023-01-22T12:52:03.074Z,75.00